Latest Weather Observations for Wulungurru (Kintore)

IDD60801

Issued at 7:11 pm CST Sunday 19 August 2018 (issued every 10 minutes, with the page automatically refreshed every 10 minutes)

About weather observations | Map of weather stations | Latest weather observations for NT | Other Formats
Station Details ID: 015664 Name: WALUNGURRU AIRPORT Lat: -23.27 Lon: 129.38 Height: 454.3 m
Data from the previous 72 hours. | See also: Recent months at Wulungurru (Kintore)
Date/Time
CST
Temp
°C
App
Temp
°C
Dew
Point
°C
Rel
Hum
%
Delta-T
°C
Wind Press
QNH
hPa
Press
MSL
hPa
Rain since
9am
mm
Dir  Spd
km/h
Gust
km/h
Spd
kts
Gust
kts
19/07:00pm 22.5 17.3 -6.3 14 11.7 ESE 13 15 7 8 1022.9 - 0.0
19/06:30pm 24.1 18.2 -6.0 13 12.6 E 17 24 9 13 1022.6 - 0.0
19/06:00pm 25.2 19.7 -5.1 13 13.0 E 15 22 8 12 1022.4 1021.8 0.0
19/05:30pm 25.6 19.7 -5.9 12 13.4 E 17 28 9 15 1022.5 - 0.0
19/05:00pm 26.0 19.7 -5.6 12 13.5 ESE 19 26 10 14 1022.4 - 0.0
19/04:30pm 26.1 20.6 -5.5 12 13.6 ESE 15 28 8 15 1022.5 - 0.0
19/04:00pm 26.2 19.8 -5.4 12 13.6 E 20 30 11 16 1022.6 - 0.0
19/03:30pm 26.5 20.2 -4.1 13 13.5 E 20 30 11 16 1022.7 - 0.0
19/03:00pm 26.1 19.9 -4.4 13 13.3 E 19 26 10 14 1023.0 1022.4 0.0
19/02:30pm 25.9 19.2 -4.6 13 13.3 E 22 32 12 17 1023.3 - 0.0
19/02:00pm 26.1 19.8 -4.4 13 13.4 ESE 20 33 11 18 1023.8 - 0.0
19/01:30pm 25.5 18.1 -3.9 14 12.9 E 26 37 14 20 1024.3 - 0.0
19/01:00pm 24.2 17.3 -2.4 17 11.9 E 24 37 13 20 1024.7 - 0.0
19/12:30pm 24.0 17.3 -1.0 19 11.5 E 24 35 13 19 1025.1 - 0.0
19/12:00pm 23.1 16.5 -0.4 21 10.8 E 24 39 13 21 1025.5 1024.9 0.0
19/11:30am 22.2 16.1 0.1 23 10.2 E 22 32 12 17 1025.9 - 0.0
19/11:00am 21.6 15.6 1.3 26 9.5 E 22 32 12 17 1026.3 - 0.0
19/10:30am 20.8 15.0 2.1 29 8.9 ESE 22 32 12 17 1026.5 - 0.0
19/10:00am 18.8 13.2 1.3 31 8.1 E 20 32 11 17 1026.6 - 0.0
19/09:30am 18.2 12.0 2.1 34 7.5 E 24 35 13 19 1026.3 - 0.0
19/09:00am 16.8 10.9 2.0 37 6.8 ESE 22 32 12 17 1025.9 1025.2 0.0
19/08:30am 15.6 9.4 2.1 40 6.2 ESE 24 35 13 19 1025.5 - 0.0
19/08:00am 15.0 8.4 2.2 42 5.8 ESE 26 37 14 20 1025.2 - 0.0
19/07:30am 14.5 7.6 2.4 44 5.5 ESE 28 39 15 21 1024.8 - 0.0
19/07:00am 14.5 7.6 2.4 44 5.5 ESE 28 39 15 21 1024.4 - 0.0
19/06:30am 14.7 8.2 2.6 44 5.5 SE 26 37 14 20 1024.0 - 0.0
19/06:00am 15.4 8.4 2.2 41 6.0 ESE 28 41 15 22 1023.6 1022.9 0.0
19/05:30am 15.7 7.9 1.8 39 6.3 ESE 32 46 17 25 1023.0 - 0.0
19/05:00am 16.3 8.5 1.6 37 6.7 ESE 32 44 17 24 1022.5 - 0.0
19/04:30am 17.1 8.3 1.5 35 7.1 E 37 59 20 32 1022.2 - 0.0
19/04:11am 17.3 9.3 1.7 35 7.1 ESE 33 56 18 30 1022.2 - 0.0
19/04:00am 16.9 8.4 1.0 34 7.2 ESE 35 46 19 25 1022.3 - 0.0
19/03:46am 17.1 9.0 0.7 33 7.4 ESE 33 52 18 28 1022.3 - 0.0
19/03:30am 17.1 9.0 0.7 33 7.4 ESE 33 46 18 25 1022.3 - 0.0
19/03:00am 17.7 9.2 0.8 32 7.6 ESE 35 54 19 29 1022.1 1021.5 0.0
19/02:30am 18.2 8.9 0.4 30 8.0 ESE 39 54 21 29 1022.1 - 0.0
19/02:00am 18.3 9.7 0.0 29 8.2 ESE 35 54 19 29 1022.1 - 0.0
19/01:56am 18.6 10.0 0.2 29 8.3 ESE 35 54 19 29 1022.1 - 0.0
19/01:30am 18.3 10.5 -0.5 28 8.3 SE 30 43 16 23 1022.0 - 0.0
19/01:00am 19.1 10.7 -0.8 26 8.8 SE 33 50 18 27 1022.1 - 0.0
19/12:30am 20.1 10.9 -1.1 24 9.4 ESE 37 57 20 31 1021.9 - 0.0
19/12:19am 20.2 11.8 -1.0 24 9.4 ESE 33 52 18 28 1021.9 - 0.0
19/12:00am 20.5 12.3 -0.7 24 9.5 ESE 32 46 17 25 1022.0 1021.3 0.0
 
Date/Time
CST
Temp
°C
App
Temp
°C
Dew
Point
°C
Rel
Hum
%
Delta-T
°C
Wind Press
QNH
hPa
Press
MSL
hPa
Rain since
9am
mm
Dir  Spd
km/h
Gust
km/h
Spd
kts
Gust
kts
18/11:30pm 20.5 12.6 -1.3 23 9.7 SE 30 39 16 21 1021.8 - 0.0
18/11:00pm 21.2 13.3 -1.3 22 10.0 SE 30 44 16 24 1021.7 - 0.0
18/10:30pm 21.7 13.8 -1.6 21 10.4 SE 30 39 16 21 1021.7 - 0.0
18/10:00pm 21.5 14.3 -2.4 20 10.5 SE 26 37 14 20 1021.7 - 0.0
18/09:30pm 21.9 14.7 -2.0 20 10.6 SE 26 39 14 21 1021.4 - 0.0
18/09:00pm 21.9 14.6 -2.7 19 10.7 SE 26 39 14 21 1021.2 1020.5 0.0
18/08:30pm 22.3 16.0 -3.9 17 11.2 SE 20 28 11 15 1020.9 - 0.0
18/08:00pm 22.2 17.1 -4.8 16 11.3 SSE 13 17 7 9 1020.6 - 0.0
18/07:30pm 22.9 17.4 -5.1 15 11.8 SE 15 17 8 9 1020.2 - 0.0
18/07:00pm 23.9 18.4 -5.2 14 12.3 SE 15 19 8 10 1019.8 - 0.0
18/06:30pm 25.7 19.8 -5.8 12 13.4 SSE 17 22 9 12 1019.5 - 0.0
18/06:00pm 26.8 20.9 -6.1 11 14.0 SSE 17 24 9 13 1019.2 1018.5 0.0
18/05:30pm 27.9 23.4 -6.5 10 14.7 SE 9 17 5 9 1018.9 - 0.0
18/05:00pm 28.1 21.4 -7.7 9 15.0 SE 20 28 11 15 1018.6 - 0.0
18/04:30pm 28.3 22.0 -6.2 10 14.9 SSE 19 28 10 15 1018.5 - 0.0
18/04:00pm 28.0 23.0 -7.8 9 15.0 S 11 22 6 12 1018.4 - 0.0
18/03:30pm 28.4 23.5 -7.5 9 15.2 SE 11 22 6 12 1018.5 - 0.0
18/03:00pm 28.9 23.2 -7.1 9 15.4 S 15 30 8 16 1018.5 1017.9 0.0
18/02:30pm 29.3 22.7 -6.8 9 15.6 ESE 20 35 11 19 1018.9 - 0.0
18/02:00pm 29.0 22.6 -7.0 9 15.4 ESE 19 30 10 16 1019.1 - 0.0
18/01:30pm 28.6 21.7 -6.0 10 15.0 E 22 30 12 16 1019.3 - 0.0
18/01:00pm 27.8 20.9 -6.6 10 14.7 E 22 33 12 18 1019.9 - 0.0
18/12:30pm 27.5 19.9 -5.6 11 14.4 ESE 26 35 14 19 1020.4 - 0.0
18/12:00pm 26.6 18.8 -4.0 13 13.5 SE 28 35 15 19 1020.8 1020.2 0.0
18/11:30am 25.5 17.3 -3.9 14 12.9 SE 30 43 16 23 1021.0 - 0.0
18/11:00am 24.9 16.4 -3.5 15 12.5 SE 32 41 17 22 1021.3 - 0.0
18/10:30am 23.8 15.4 -2.7 17 11.8 SE 32 39 17 21 1021.3 - 0.0
18/10:00am 21.8 12.9 -2.1 20 10.5 SE 35 44 19 24 1021.3 - 0.0
18/09:30am 20.6 12.2 -1.2 23 9.7 SE 33 44 18 24 1021.0 - 0.0
18/09:00am 18.8 10.3 -1.6 25 8.8 SE 33 44 18 24 1020.9 1020.3 0.0
18/08:30am 17.6 9.1 -1.6 27 8.2 SE 33 44 18 24 1020.7 - 0.0
18/08:00am 16.3 8.4 -1.7 29 7.6 SSE 30 41 16 22 1020.3 - 0.0
18/07:30am 15.7 7.1 -2.3 29 7.5 SSE 33 46 18 25 1019.6 - 0.0
18/07:00am 16.0 7.4 -2.5 28 7.7 SSE 33 44 18 24 1019.2 - 0.0
18/06:30am 16.1 7.7 -2.4 28 7.7 SSE 32 41 17 22 1019.0 - 0.0
18/06:00am 17.1 8.7 -2.5 26 8.2 SE 32 43 17 23 1018.3 1017.7 0.0
18/05:30am 17.1 8.6 -3.6 24 8.5 SSE 32 46 17 25 1018.0 - 0.0
18/05:00am 17.9 8.7 -4.7 21 9.1 SE 35 50 19 27 1017.8 - 0.0
18/04:30am 19.7 11.0 -3.2 21 9.7 SE 33 44 18 24 1017.6 - 0.0
18/04:00am 19.8 11.1 -3.8 20 9.9 SE 33 44 18 24 1017.6 - 0.0
18/03:30am 19.7 12.3 -3.9 20 9.9 SE 26 39 14 21 1017.6 - 0.0
18/03:00am 19.4 12.1 -6.2 17 10.2 SSE 24 39 13 21 1017.6 1016.9 0.0
18/02:30am 17.0 10.3 -10.7 14 9.8 SSE 19 22 10 12 1017.8 - 0.0
18/02:00am 16.5 9.7 -12.0 13 9.7 S 19 20 10 11 1018.1 - 0.0
18/01:30am 13.6 8.6 -14.3 13 8.7 SSE 9 11 5 6 1017.7 - 0.0
18/01:00am 14.1 9.0 -14.8 12 9.0 S 9 11 5 6 1017.7 - 0.0
18/12:30am 15.4 10.0 -13.8 12 9.4 S 11 13 6 7 1017.7 - 0.0
18/12:00am 15.8 10.0 -13.5 12 9.6 SSE 13 17 7 9 1017.7 1017.0 0.0
 
Date/Time
CST
Temp
°C
App
Temp
°C
Dew
Point
°C
Rel
Hum
%
Delta-T
°C
Wind Press
QNH
hPa
Press
MSL
hPa
Rain since
9am
mm
Dir  Spd
km/h
Gust
km/h
Spd
kts
Gust
kts
17/11:30pm 17.6 12.2 -13.2 11 10.4 S 11 13 6 7 1017.8 - 0.0
17/11:00pm 15.5 10.9 -13.7 12 9.5 SW 7 9 4 5 1017.9 - 0.0
17/10:30pm 15.7 10.7 -13.6 12 9.6 S 9 13 5 7 1017.8 - 0.0
17/10:00pm 14.7 10.6 -14.4 12 9.2 W 4 9 2 5 1017.7 - 0.0
17/09:30pm 16.1 11.6 -14.3 11 9.8 W 6 9 3 5 1017.6 - 0.0
17/09:00pm 18.1 14.8 -14.0 10 10.7 CALM 0 0 0 0 1017.2 1016.5 0.0
17/08:30pm 17.7 13.6 -14.3 10 10.6 SE 4 7 2 4 1016.9 - 0.0
17/08:00pm 19.1 14.5 -13.2 10 11.1 SSE 7 7 4 4 1016.5 - 0.0
17/07:30pm 21.2 16.5 -14.3 8 12.3 SSW 7 11 4 6 1015.8 - 0.0
17/07:00pm 23.4 18.7 -14.3 7 13.4 WSW 7 9 4 5 1015.4 - 0.0
17/06:30pm 26.9 22.5 -13.7 6 15.1 WNW 6 7 3 4 1014.9 - 0.0
17/06:00pm 28.3 23.7 -12.7 6 15.8 WNW 7 13 4 7 1014.7 1014.0 0.0
17/05:30pm 28.9 24.4 -14.5 5 16.3 WNW 6 13 3 7 1014.6 - 0.0
17/05:00pm 29.3 23.5 -14.2 5 16.5 W 13 20 7 11 1014.5 - 0.0
17/04:30pm 29.0 24.5 -14.4 5 16.4 S 6 13 3 7 1014.3 - 0.0
17/04:00pm 29.3 23.5 -14.2 5 16.5 W 13 20 7 11 1014.2 - 0.0
17/03:30pm 29.4 24.0 -14.1 5 16.5 S 11 20 6 11 1014.4 - 0.0
17/03:00pm 29.2 23.5 -12.0 6 16.2 W 13 22 7 12 1014.5 1013.7 0.0
17/02:30pm 29.2 24.7 -12.0 6 16.2 ENE 7 11 4 6 1014.8 - 0.0
17/02:00pm 29.3 24.8 -11.9 6 16.3 N 7 17 4 9 1015.3 - 0.0
17/01:30pm 28.8 23.0 -14.5 5 16.3 WNW 13 20 7 11 1015.7 - 0.0
17/01:00pm 28.6 23.3 -12.4 6 15.9 NW 11 17 6 9 1016.1 - 0.0
17/12:30pm 28.1 23.7 -12.8 6 15.7 NW 6 13 3 7 1016.7 - 0.0
17/12:00pm 27.3 22.8 -11.5 7 15.1 NNW 7 13 4 7 1017.1 1016.4 0.0
17/11:30am 26.7 22.4 -11.9 7 14.8 N 6 9 3 5 1017.4 - 0.0
17/11:00am 24.8 19.9 -11.7 8 13.8 NE 9 15 5 8 1017.6 - 0.0
17/10:30am 23.6 18.3 -12.5 8 13.3 NNE 11 17 6 9 1017.7 - 0.0
17/10:00am 22.2 16.5 -12.1 9 12.5 ENE 13 17 7 9 1017.7 - 0.0
17/09:30am 21.2 15.1 -12.9 9 12.1 ENE 15 20 8 11 1017.6 - 0.0
17/09:00am 20.6 15.2 -13.3 9 11.8 E 11 17 6 9 1017.4 1016.7 0.0
17/08:30am 18.6 14.2 -12.4 11 10.8 SE 6 11 3 6 1017.1 - 0.0
17/08:00am 16.4 10.7 -12.1 13 9.7 SSE 13 15 7 8 1016.9 - 0.0
17/07:30am 14.9 8.8 -13.2 13 9.1 SSE 15 17 8 9 1016.3 - 0.0
17/07:00am 13.5 8.1 -13.4 14 8.5 SE 11 17 6 9 1016.0 - 0.0
17/06:30am 15.4 8.9 -12.8 13 9.3 SSE 17 20 9 11 1015.7 - 0.0
17/06:00am 14.6 8.8 -13.5 13 9.0 SE 13 15 7 8 1015.5 1014.8 0.0
17/05:30am 14.9 8.4 -13.2 13 9.1 SSE 17 22 9 12 1015.4 - 0.0
17/05:00am 15.1 9.4 -13.1 13 9.2 SSE 13 17 7 9 1015.2 - 0.0
17/04:30am 15.1 8.2 -14.1 12 9.3 SSE 19 24 10 13 1015.1 - 0.0
17/04:00am 14.3 8.5 -13.7 13 8.9 SSE 13 17 7 9 1015.1 - 0.0
17/03:30am 13.2 7.4 -13.7 14 8.5 SE 13 15 7 8 1014.9 - 0.0
17/03:00am 13.7 7.5 -14.2 13 8.7 SSE 15 17 8 9 1015.0 1014.3 0.0
17/02:30am 12.7 6.5 -14.1 14 8.3 SSE 15 15 8 8 1015.2 - 0.0
17/02:00am 15.0 8.8 -14.1 12 9.3 SSE 15 17 8 9 1015.4 - 0.0
17/01:30am 16.6 10.8 -13.9 11 10.0 SSE 13 19 7 10 1015.6 - 0.0
17/01:00am 17.0 10.5 -12.6 12 10.0 S 17 19 9 10 1015.6 - 0.0
17/12:30am 14.5 8.0 -12.6 14 8.9 SSE 17 19 9 10 1015.7 - 0.0
17/12:00am 12.4 7.4 -14.3 14 8.2 ESE 9 11 5 6 1015.8 - 0.0
 
Date/Time
CST
Temp
°C
App
Temp
°C
Dew
Point
°C
Rel
Hum
%
Delta-T
°C
Wind Press
QNH
hPa
Press
MSL
hPa
Rain since
9am
mm
Dir  Spd
km/h
Gust
km/h
Spd
kts
Gust
kts
16/11:30pm 14.2 10.1 -14.8 12 9.0 NNW 4 7 2 4 1016.0 - 0.0
16/11:00pm 14.3 9.7 -13.7 13 8.9 SSE 7 7 4 4 1015.9 - 0.0
16/10:30pm 14.4 9.8 -13.6 13 9.0 S 7 7 4 4 1015.9 - 0.0
16/10:00pm 14.9 10.2 -14.2 12 9.3 SSE 7 9 4 5 1015.9 - 0.0
16/09:30pm 14.9 10.2 -14.2 12 9.3 S 7 7 4 4 1015.8 - 0.0
16/09:00pm 15.7 11.2 -14.6 11 9.7 SSW 6 7 3 4 1015.7 1015.0 0.0
16/08:30pm 17.5 13.1 -13.2 11 10.3 SSW 6 7 3 4 1015.6 - 0.0
16/08:00pm 18.6 13.2 -13.6 10 10.9 WSW 11 13 6 7 1015.4 - 0.0
16/07:30pm 19.6 15.5 -14.1 9 11.5 WNW 4 7 2 4 1014.9 - 0.0

Other Formats:

Comma delimited format used in spreadsheet applications
http://www.bom.gov.au/fwo/IDD60801/IDD60801.94321.axf

JavaScript Object Notation format (JSON) in row-major order
http://www.bom.gov.au/fwo/IDD60801/IDD60801.94321.json